sensor_id;sensor_type;location;lat;lon;timestamp;P1;durP1;ratioP1;P2;durP2;ratioP2
7074;SDS011;3578;51.568;6.932;2023-01-04T00:02:00;5.57;;;2.50;;
7074;SDS011;3578;51.568;6.932;2023-01-04T00:04:27;11.50;;;2.70;;
7074;SDS011;3578;51.568;6.932;2023-01-04T00:06:55;6.83;;;2.30;;
7074;SDS011;3578;51.568;6.932;2023-01-04T00:09:22;4.37;;;2.40;;
7074;SDS011;3578;51.568;6.932;2023-01-04T00:11:49;5.10;;;2.23;;
7074;SDS011;3578;51.568;6.932;2023-01-04T00:14:16;2.67;;;1.90;;
7074;SDS011;3578;51.568;6.932;2023-01-04T00:16:44;9.40;;;2.60;;
7074;SDS011;3578;51.568;6.932;2023-01-04T00:19:11;3.30;;;2.17;;
7074;SDS011;3578;51.568;6.932;2023-01-04T00:21:39;5.23;;;2.43;;
7074;SDS011;3578;51.568;6.932;2023-01-04T00:24:06;5.10;;;1.90;;
7074;SDS011;3578;51.568;6.932;2023-01-04T00:26:35;5.60;;;2.37;;
7074;SDS011;3578;51.568;6.932;2023-01-04T00:29:11;4.30;;;2.07;;
7074;SDS011;3578;51.568;6.932;2023-01-04T00:31:40;5.50;;;1.90;;
7074;SDS011;3578;51.568;6.932;2023-01-04T00:34:10;3.43;;;2.13;;
7074;SDS011;3578;51.568;6.932;2023-01-04T00:36:40;4.23;;;2.10;;
7074;SDS011;3578;51.568;6.932;2023-01-04T00:39:08;6.23;;;2.30;;
7074;SDS011;3578;51.568;6.932;2023-01-04T00:41:40;5.80;;;2.07;;
7074;SDS011;3578;51.568;6.932;2023-01-04T00:44:10;3.67;;;2.57;;
7074;SDS011;3578;51.568;6.932;2023-01-04T00:46:39;3.83;;;1.90;;
7074;SDS011;3578;51.568;6.932;2023-01-04T00:49:07;2.60;;;2.40;;
7074;SDS011;3578;51.568;6.932;2023-01-04T00:51:38;3.60;;;2.20;;
7074;SDS011;3578;51.568;6.932;2023-01-04T00:54:07;2.97;;;2.20;;
7074;SDS011;3578;51.568;6.932;2023-01-04T00:56:38;6.40;;;2.13;;
7074;SDS011;3578;51.568;6.932;2023-01-04T00:59:06;4.70;;;2.60;;
7074;SDS011;3578;51.568;6.932;2023-01-04T01:01:34;3.80;;;2.10;;
7074;SDS011;3578;51.568;6.932;2023-01-04T01:04:02;10.90;;;2.43;;
7074;SDS011;3578;51.568;6.932;2023-01-04T01:06:32;3.10;;;2.43;;
7074;SDS011;3578;51.568;6.932;2023-01-04T01:08:59;5.93;;;2.20;;
7074;SDS011;3578;51.568;6.932;2023-01-04T01:11:27;4.60;;;2.47;;
7074;SDS011;3578;51.568;6.932;2023-01-04T01:13:56;5.60;;;2.47;;
7074;SDS011;3578;51.568;6.932;2023-01-04T01:16:24;5.50;;;2.03;;
7074;SDS011;3578;51.568;6.932;2023-01-04T01:18:52;3.90;;;2.57;;
7074;SDS011;3578;51.568;6.932;2023-01-04T01:21:20;6.33;;;2.70;;
7074;SDS011;3578;51.568;6.932;2023-01-04T01:23:52;3.30;;;2.13;;
7074;SDS011;3578;51.568;6.932;2023-01-04T01:26:21;7.43;;;2.87;;
7074;SDS011;3578;51.568;6.932;2023-01-04T01:28:51;7.30;;;2.70;;
7074;SDS011;3578;51.568;6.932;2023-01-04T01:31:19;4.20;;;2.57;;
7074;SDS011;3578;51.568;6.932;2023-01-04T01:33:49;2.87;;;2.40;;
7074;SDS011;3578;51.568;6.932;2023-01-04T01:36:18;4.77;;;2.40;;
7074;SDS011;3578;51.568;6.932;2023-01-04T01:38:48;9.70;;;2.40;;
7074;SDS011;3578;51.568;6.932;2023-01-04T01:41:18;6.90;;;2.80;;
7074;SDS011;3578;51.568;6.932;2023-01-04T01:43:49;6.67;;;2.60;;
7074;SDS011;3578;51.568;6.932;2023-01-04T01:46:21;4.03;;;2.20;;
7074;SDS011;3578;51.568;6.932;2023-01-04T01:48:52;3.90;;;2.50;;
7074;SDS011;3578;51.568;6.932;2023-01-04T01:51:24;5.93;;;2.67;;
7074;SDS011;3578;51.568;6.932;2023-01-04T01:53:55;7.20;;;3.30;;
7074;SDS011;3578;51.568;6.932;2023-01-04T01:56:30;3.83;;;2.43;;
7074;SDS011;3578;51.568;6.932;2023-01-04T01:59:01;6.03;;;2.63;;
7074;SDS011;3578;51.568;6.932;2023-01-04T02:01:29;3.90;;;2.77;;
7074;SDS011;3578;51.568;6.932;2023-01-04T02:03:58;6.60;;;3.10;;
7074;SDS011;3578;51.568;6.932;2023-01-04T02:06:28;5.00;;;2.93;;
7074;SDS011;3578;51.568;6.932;2023-01-04T02:08:59;8.77;;;2.73;;
7074;SDS011;3578;51.568;6.932;2023-01-04T02:11:27;5.90;;;3.03;;
7074;SDS011;3578;51.568;6.932;2023-01-04T02:13:56;7.67;;;2.47;;
7074;SDS011;3578;51.568;6.932;2023-01-04T02:16:47;4.67;;;2.53;;
7074;SDS011;3578;51.568;6.932;2023-01-04T02:26:15;4.90;;;2.80;;
7074;SDS011;3578;51.568;6.932;2023-01-04T02:30:05;9.63;;;3.30;;
7074;SDS011;3578;51.568;6.932;2023-01-04T02:33:11;3.33;;;3.10;;
7074;SDS011;3578;51.568;6.932;2023-01-04T02:35:51;3.40;;;2.50;;
7074;SDS011;3578;51.568;6.932;2023-01-04T02:38:27;9.27;;;4.10;;
7074;SDS011;3578;51.568;6.932;2023-01-04T02:41:04;4.37;;;2.90;;
7074;SDS011;3578;51.568;6.932;2023-01-04T02:43:40;8.43;;;3.60;;
7074;SDS011;3578;51.568;6.932;2023-01-04T02:46:46;13.13;;;3.67;;
7074;SDS011;3578;51.568;6.932;2023-01-04T02:49:17;9.63;;;4.00;;
7074;SDS011;3578;51.568;6.932;2023-01-04T02:52:02;9.53;;;3.43;;
7074;SDS011;3578;51.568;6.932;2023-01-04T02:54:30;4.37;;;3.13;;
7074;SDS011;3578;51.568;6.932;2023-01-04T02:56:59;4.80;;;3.47;;
7074;SDS011;3578;51.568;6.932;2023-01-04T02:59:48;6.63;;;3.93;;
7074;SDS011;3578;51.568;6.932;2023-01-04T03:02:35;8.50;;;3.90;;
7074;SDS011;3578;51.568;6.932;2023-01-04T03:05:42;6.30;;;3.93;;
7074;SDS011;3578;51.568;6.932;2023-01-04T03:08:39;10.33;;;3.90;;
7074;SDS011;3578;51.568;6.932;2023-01-04T03:11:14;9.30;;;4.00;;
7074;SDS011;3578;51.568;6.932;2023-01-04T03:14:04;6.40;;;3.67;;
7074;SDS011;3578;51.568;6.932;2023-01-04T03:16:36;8.33;;;4.07;;
7074;SDS011;3578;51.568;6.932;2023-01-04T03:19:07;8.23;;;4.20;;
7074;SDS011;3578;51.568;6.932;2023-01-04T03:21:39;4.73;;;4.00;;
7074;SDS011;3578;51.568;6.932;2023-01-04T03:24:10;9.13;;;4.60;;
7074;SDS011;3578;51.568;6.932;2023-01-04T03:26:59;6.73;;;4.70;;
7074;SDS011;3578;51.568;6.932;2023-01-04T03:29:51;15.13;;;4.90;;
7074;SDS011;3578;51.568;6.932;2023-01-04T03:32:42;5.37;;;4.37;;
7074;SDS011;3578;51.568;6.932;2023-01-04T03:35:31;8.03;;;4.40;;
7074;SDS011;3578;51.568;6.932;2023-01-04T03:38:10;12.73;;;4.63;;
7074;SDS011;3578;51.568;6.932;2023-01-04T03:41:05;6.07;;;4.00;;
7074;SDS011;3578;51.568;6.932;2023-01-04T03:44:02;5.57;;;4.33;;
7074;SDS011;3578;51.568;6.932;2023-01-04T03:46:55;10.53;;;3.80;;
7074;SDS011;3578;51.568;6.932;2023-01-04T03:49:50;5.57;;;4.17;;
7074;SDS011;3578;51.568;6.932;2023-01-04T03:52:24;14.20;;;4.27;;
7074;SDS011;3578;51.568;6.932;2023-01-04T03:54:55;7.40;;;3.90;;
7074;SDS011;3578;51.568;6.932;2023-01-04T03:57:24;10.33;;;4.57;;
7074;SDS011;3578;51.568;6.932;2023-01-04T03:59:52;4.00;;;3.13;;
7074;SDS011;3578;51.568;6.932;2023-01-04T04:02:29;12.53;;;4.53;;
7074;SDS011;3578;51.568;6.932;2023-01-04T04:04:58;4.80;;;3.43;;
7074;SDS011;3578;51.568;6.932;2023-01-04T04:07:42;10.23;;;2.93;;
7074;SDS011;3578;51.568;6.932;2023-01-04T04:10:28;5.93;;;3.17;;
7074;SDS011;3578;51.568;6.932;2023-01-04T04:12:55;2.53;;;2.43;;
7074;SDS011;3578;51.568;6.932;2023-01-04T04:15:22;6.33;;;2.70;;
7074;SDS011;3578;51.568;6.932;2023-01-04T04:17:49;4.30;;;2.33;;
7074;SDS011;3578;51.568;6.932;2023-01-04T04:20:16;3.40;;;2.53;;
7074;SDS011;3578;51.568;6.932;2023-01-04T04:22:43;3.63;;;2.00;;
7074;SDS011;3578;51.568;6.932;2023-01-04T04:25:10;5.70;;;2.47;;
7074;SDS011;3578;51.568;6.932;2023-01-04T04:27:38;3.67;;;2.03;;
7074;SDS011;3578;51.568;6.932;2023-01-04T04:30:05;2.20;;;2.00;;
7074;SDS011;3578;51.568;6.932;2023-01-04T04:32:34;4.17;;;2.40;;
7074;SDS011;3578;51.568;6.932;2023-01-04T04:35:01;6.00;;;1.90;;
7074;SDS011;3578;51.568;6.932;2023-01-04T04:37:29;2.33;;;1.90;;
7074;SDS011;3578;51.568;6.932;2023-01-04T04:39:59;2.87;;;1.90;;
7074;SDS011;3578;51.568;6.932;2023-01-04T04:42:26;2.83;;;1.83;;
7074;SDS011;3578;51.568;6.932;2023-01-04T04:44:53;2.33;;;2.10;;
7074;SDS011;3578;51.568;6.932;2023-01-04T04:47:20;2.40;;;1.60;;
7074;SDS011;3578;51.568;6.932;2023-01-04T04:49:48;2.87;;;2.17;;
7074;SDS011;3578;51.568;6.932;2023-01-04T04:52:14;2.50;;;2.20;;
7074;SDS011;3578;51.568;6.932;2023-01-04T04:54:41;2.20;;;2.10;;
7074;SDS011;3578;51.568;6.932;2023-01-04T04:57:08;6.23;;;2.50;;
7074;SDS011;3578;51.568;6.932;2023-01-04T04:59:35;4.53;;;2.37;;
7074;SDS011;3578;51.568;6.932;2023-01-04T05:02:04;3.40;;;2.63;;
7074;SDS011;3578;51.568;6.932;2023-01-04T05:04:31;2.60;;;2.17;;
7074;SDS011;3578;51.568;6.932;2023-01-04T05:06:58;2.57;;;2.37;;
7074;SDS011;3578;51.568;6.932;2023-01-04T05:09:25;3.20;;;2.40;;
7074;SDS011;3578;51.568;6.932;2023-01-04T05:11:52;3.33;;;2.80;;
7074;SDS011;3578;51.568;6.932;2023-01-04T05:14:36;2.97;;;2.80;;
7074;SDS011;3578;51.568;6.932;2023-01-04T05:17:05;6.53;;;3.30;;
7074;SDS011;3578;51.568;6.932;2023-01-04T05:19:31;4.60;;;2.80;;
7074;SDS011;3578;51.568;6.932;2023-01-04T05:21:58;2.70;;;2.50;;
7074;SDS011;3578;51.568;6.932;2023-01-04T05:24:25;3.00;;;2.80;;
7074;SDS011;3578;51.568;6.932;2023-01-04T05:26:52;3.27;;;2.97;;
7074;SDS011;3578;51.568;6.932;2023-01-04T05:29:19;2.80;;;2.60;;
7074;SDS011;3578;51.568;6.932;2023-01-04T05:32:05;4.57;;;2.77;;
7074;SDS011;3578;51.568;6.932;2023-01-04T05:34:32;4.20;;;3.33;;
7074;SDS011;3578;51.568;6.932;2023-01-04T05:36:59;4.67;;;3.10;;
7074;SDS011;3578;51.568;6.932;2023-01-04T05:39:26;3.47;;;3.20;;
7074;SDS011;3578;51.568;6.932;2023-01-04T05:41:55;3.97;;;3.57;;
7074;SDS011;3578;51.568;6.932;2023-01-04T05:44:39;3.57;;;3.27;;
7074;SDS011;3578;51.568;6.932;2023-01-04T05:47:07;5.90;;;4.20;;
7074;SDS011;3578;51.568;6.932;2023-01-04T05:49:34;3.83;;;2.90;;
7074;SDS011;3578;51.568;6.932;2023-01-04T05:52:01;5.33;;;2.00;;
7074;SDS011;3578;51.568;6.932;2023-01-04T05:54:28;2.37;;;2.27;;
7074;SDS011;3578;51.568;6.932;2023-01-04T05:56:55;2.30;;;2.07;;
7074;SDS011;3578;51.568;6.932;2023-01-04T05:59:22;1.80;;;1.70;;
7074;SDS011;3578;51.568;6.932;2023-01-04T06:01:49;2.40;;;2.20;;
7074;SDS011;3578;51.568;6.932;2023-01-04T06:04:17;1.77;;;1.67;;
7074;SDS011;3578;51.568;6.932;2023-01-04T06:06:45;1.77;;;1.67;;
7074;SDS011;3578;51.568;6.932;2023-01-04T06:09:12;1.83;;;1.80;;
7074;SDS011;3578;51.568;6.932;2023-01-04T06:11:39;1.60;;;1.60;;
7074;SDS011;3578;51.568;6.932;2023-01-04T06:14:06;1.63;;;1.60;;
7074;SDS011;3578;51.568;6.932;2023-01-04T06:16:33;1.37;;;1.23;;
7074;SDS011;3578;51.568;6.932;2023-01-04T06:19:00;2.10;;;1.30;;
7074;SDS011;3578;51.568;6.932;2023-01-04T06:21:30;1.63;;;1.30;;
7074;SDS011;3578;51.568;6.932;2023-01-04T06:23:57;2.20;;;1.30;;
7074;SDS011;3578;51.568;6.932;2023-01-04T06:26:24;1.83;;;1.73;;
7074;SDS011;3578;51.568;6.932;2023-01-04T06:28:51;1.57;;;1.47;;
7074;SDS011;3578;51.568;6.932;2023-01-04T06:31:19;1.33;;;1.30;;
7074;SDS011;3578;51.568;6.932;2023-01-04T06:33:46;1.93;;;1.80;;
7074;SDS011;3578;51.568;6.932;2023-01-04T06:36:13;1.80;;;1.70;;
7074;SDS011;3578;51.568;6.932;2023-01-04T06:38:41;2.50;;;1.93;;
7074;SDS011;3578;51.568;6.932;2023-01-04T06:41:08;4.70;;;2.43;;
7074;SDS011;3578;51.568;6.932;2023-01-04T06:43:35;2.13;;;2.03;;
7074;SDS011;3578;51.568;6.932;2023-01-04T06:46:02;2.07;;;1.87;;
7074;SDS011;3578;51.568;6.932;2023-01-04T06:48:29;2.47;;;1.97;;
7074;SDS011;3578;51.568;6.932;2023-01-04T06:50:56;2.00;;;1.90;;
7074;SDS011;3578;51.568;6.932;2023-01-04T06:53:23;2.80;;;1.63;;
7074;SDS011;3578;51.568;6.932;2023-01-04T06:55:52;1.70;;;1.60;;
7074;SDS011;3578;51.568;6.932;2023-01-04T06:58:19;2.10;;;1.73;;
7074;SDS011;3578;51.568;6.932;2023-01-04T07:00:46;2.23;;;1.50;;
7074;SDS011;3578;51.568;6.932;2023-01-04T07:03:13;1.50;;;1.40;;
7074;SDS011;3578;51.568;6.932;2023-01-04T07:05:40;1.40;;;1.30;;
7074;SDS011;3578;51.568;6.932;2023-01-04T07:08:07;1.10;;;1.10;;
7074;SDS011;3578;51.568;6.932;2023-01-04T07:10:34;1.43;;;1.33;;
7074;SDS011;3578;51.568;6.932;2023-01-04T07:13:03;9.93;;;1.27;;
7074;SDS011;3578;51.568;6.932;2023-01-04T07:15:30;1.53;;;1.43;;
7074;SDS011;3578;51.568;6.932;2023-01-04T07:17:57;1.47;;;1.30;;
7074;SDS011;3578;51.568;6.932;2023-01-04T07:20:24;1.50;;;1.40;;
7074;SDS011;3578;51.568;6.932;2023-01-04T07:22:52;1.73;;;1.60;;
7074;SDS011;3578;51.568;6.932;2023-01-04T07:25:19;1.53;;;1.40;;
7074;SDS011;3578;51.568;6.932;2023-01-04T07:27:49;1.50;;;1.40;;
7074;SDS011;3578;51.568;6.932;2023-01-04T07:30:19;3.10;;;1.57;;
7074;SDS011;3578;51.568;6.932;2023-01-04T07:32:50;1.63;;;1.53;;
7074;SDS011;3578;51.568;6.932;2023-01-04T07:35:18;1.80;;;1.40;;
7074;SDS011;3578;51.568;6.932;2023-01-04T07:37:46;1.67;;;1.57;;
7074;SDS011;3578;51.568;6.932;2023-01-04T07:40:13;1.50;;;1.40;;
7074;SDS011;3578;51.568;6.932;2023-01-04T07:42:40;1.67;;;1.60;;
7074;SDS011;3578;51.568;6.932;2023-01-04T07:45:07;2.93;;;1.97;;
7074;SDS011;3578;51.568;6.932;2023-01-04T07:47:36;1.40;;;1.40;;
7074;SDS011;3578;51.568;6.932;2023-01-04T07:50:04;1.70;;;1.60;;
7074;SDS011;3578;51.568;6.932;2023-01-04T07:52:32;3.30;;;1.50;;
7074;SDS011;3578;51.568;6.932;2023-01-04T07:54:59;2.67;;;1.80;;
7074;SDS011;3578;51.568;6.932;2023-01-04T07:57:26;1.73;;;1.50;;
7074;SDS011;3578;51.568;6.932;2023-01-04T07:59:53;2.50;;;1.60;;
7074;SDS011;3578;51.568;6.932;2023-01-04T08:02:20;1.40;;;1.40;;
7074;SDS011;3578;51.568;6.932;2023-01-04T08:04:49;2.00;;;1.70;;
7074;SDS011;3578;51.568;6.932;2023-01-04T08:07:16;1.40;;;1.30;;
7074;SDS011;3578;51.568;6.932;2023-01-04T08:09:43;2.17;;;1.40;;
7074;SDS011;3578;51.568;6.932;2023-01-04T08:12:10;1.37;;;1.27;;
7074;SDS011;3578;51.568;6.932;2023-01-04T08:14:37;1.60;;;1.50;;
7074;SDS011;3578;51.568;6.932;2023-01-04T08:17:04;2.57;;;1.50;;
7074;SDS011;3578;51.568;6.932;2023-01-04T08:19:31;2.50;;;1.20;;
7074;SDS011;3578;51.568;6.932;2023-01-04T08:22:00;1.57;;;1.40;;
7074;SDS011;3578;51.568;6.932;2023-01-04T08:24:27;2.90;;;1.20;;
7074;SDS011;3578;51.568;6.932;2023-01-04T08:26:54;1.37;;;1.20;;
7074;SDS011;3578;51.568;6.932;2023-01-04T08:29:21;1.40;;;1.30;;
7074;SDS011;3578;51.568;6.932;2023-01-04T08:31:48;1.10;;;1.10;;
7074;SDS011;3578;51.568;6.932;2023-01-04T08:34:15;1.10;;;1.10;;
7074;SDS011;3578;51.568;6.932;2023-01-04T08:36:43;1.43;;;1.33;;
7074;SDS011;3578;51.568;6.932;2023-01-04T08:39:14;2.67;;;1.60;;
7074;SDS011;3578;51.568;6.932;2023-01-04T08:41:41;1.37;;;1.30;;
7074;SDS011;3578;51.568;6.932;2023-01-04T08:44:18;1.20;;;1.10;;
7074;SDS011;3578;51.568;6.932;2023-01-04T08:46:47;1.30;;;1.30;;
7074;SDS011;3578;51.568;6.932;2023-01-04T08:49:15;1.60;;;1.50;;
7074;SDS011;3578;51.568;6.932;2023-01-04T08:51:42;2.03;;;1.40;;
7074;SDS011;3578;51.568;6.932;2023-01-04T08:54:10;1.97;;;1.47;;
7074;SDS011;3578;51.568;6.932;2023-01-04T08:56:40;1.70;;;1.60;;
7074;SDS011;3578;51.568;6.932;2023-01-04T08:59:08;1.70;;;1.60;;
7074;SDS011;3578;51.568;6.932;2023-01-04T09:01:37;2.70;;;1.80;;
7074;SDS011;3578;51.568;6.932;2023-01-04T09:04:05;1.97;;;1.40;;
7074;SDS011;3578;51.568;6.932;2023-01-04T09:06:32;1.80;;;1.70;;
7074;SDS011;3578;51.568;6.932;2023-01-04T09:08:59;2.70;;;1.60;;
7074;SDS011;3578;51.568;6.932;2023-01-04T09:11:27;1.60;;;1.50;;
7074;SDS011;3578;51.568;6.932;2023-01-04T09:13:55;2.43;;;1.47;;
7074;SDS011;3578;51.568;6.932;2023-01-04T09:16:25;1.57;;;1.50;;
7074;SDS011;3578;51.568;6.932;2023-01-04T09:18:53;1.63;;;1.37;;
7074;SDS011;3578;51.568;6.932;2023-01-04T09:21:21;2.10;;;1.37;;
7074;SDS011;3578;51.568;6.932;2023-01-04T09:23:48;2.40;;;1.70;;
7074;SDS011;3578;51.568;6.932;2023-01-04T09:26:16;1.53;;;1.50;;
7074;SDS011;3578;51.568;6.932;2023-01-04T09:28:46;1.33;;;1.33;;
7074;SDS011;3578;51.568;6.932;2023-01-04T09:31:15;2.20;;;1.50;;
7074;SDS011;3578;51.568;6.932;2023-01-04T09:33:44;2.63;;;1.40;;
7074;SDS011;3578;51.568;6.932;2023-01-04T09:36:12;1.50;;;1.27;;
7074;SDS011;3578;51.568;6.932;2023-01-04T09:38:42;2.10;;;1.13;;
7074;SDS011;3578;51.568;6.932;2023-01-04T09:41:13;3.07;;;1.40;;
7074;SDS011;3578;51.568;6.932;2023-01-04T09:43:48;2.90;;;1.67;;
7074;SDS011;3578;51.568;6.932;2023-01-04T09:46:22;2.10;;;1.40;;
7074;SDS011;3578;51.568;6.932;2023-01-04T09:48:58;1.80;;;1.70;;
7074;SDS011;3578;51.568;6.932;2023-01-04T09:51:39;2.63;;;1.40;;
7074;SDS011;3578;51.568;6.932;2023-01-04T09:54:15;1.60;;;1.50;;
7074;SDS011;3578;51.568;6.932;2023-01-04T09:56:48;3.53;;;1.57;;
7074;SDS011;3578;51.568;6.932;2023-01-04T09:59:19;6.83;;;2.03;;
7074;SDS011;3578;51.568;6.932;2023-01-04T10:01:54;1.50;;;1.40;;
7074;SDS011;3578;51.568;6.932;2023-01-04T10:04:28;12.77;;;5.97;;
7074;SDS011;3578;51.568;6.932;2023-01-04T10:07:08;2.23;;;2.03;;
7074;SDS011;3578;51.568;6.932;2023-01-04T10:09:47;2.80;;;2.60;;
7074;SDS011;3578;51.568;6.932;2023-01-04T10:12:17;9.13;;;7.30;;
7074;SDS011;3578;51.568;6.932;2023-01-04T10:15:02;3.27;;;2.60;;
7074;SDS011;3578;51.568;6.932;2023-01-04T10:17:46;3.83;;;2.70;;
7074;SDS011;3578;51.568;6.932;2023-01-04T10:20:30;1.83;;;1.70;;
7074;SDS011;3578;51.568;6.932;2023-01-04T10:23:17;4.20;;;1.63;;
7074;SDS011;3578;51.568;6.932;2023-01-04T10:25:57;3.10;;;1.53;;
7074;SDS011;3578;51.568;6.932;2023-01-04T10:28:36;2.73;;;1.57;;
7074;SDS011;3578;51.568;6.932;2023-01-04T10:31:21;2.23;;;1.50;;
7074;SDS011;3578;51.568;6.932;2023-01-04T10:33:56;2.20;;;2.10;;
7074;SDS011;3578;51.568;6.932;2023-01-04T10:36:31;2.83;;;1.87;;
7074;SDS011;3578;51.568;6.932;2023-01-04T10:38:59;1.70;;;1.60;;
7074;SDS011;3578;51.568;6.932;2023-01-04T10:41:31;1.90;;;1.80;;
7074;SDS011;3578;51.568;6.932;2023-01-04T10:44:06;8.63;;;7.80;;
7074;SDS011;3578;51.568;6.932;2023-01-04T10:46:42;2.80;;;2.10;;
7074;SDS011;3578;51.568;6.932;2023-01-04T10:49:19;3.90;;;2.43;;
7074;SDS011;3578;51.568;6.932;2023-01-04T10:51:54;3.80;;;2.10;;
7074;SDS011;3578;51.568;6.932;2023-01-04T10:54:27;5.80;;;1.60;;
7074;SDS011;3578;51.568;6.932;2023-01-04T10:57:04;2.10;;;1.50;;
7074;SDS011;3578;51.568;6.932;2023-01-04T10:59:39;2.40;;;1.37;;
7074;SDS011;3578;51.568;6.932;2023-01-04T11:02:15;4.47;;;1.93;;
7074;SDS011;3578;51.568;6.932;2023-01-04T11:04:51;1.83;;;1.53;;
7074;SDS011;3578;51.568;6.932;2023-01-04T11:07:26;2.73;;;1.80;;
7074;SDS011;3578;51.568;6.932;2023-01-04T11:10:02;2.13;;;1.93;;
7074;SDS011;3578;51.568;6.932;2023-01-04T11:12:33;2.70;;;1.97;;
7074;SDS011;3578;51.568;6.932;2023-01-04T11:15:00;1.57;;;1.47;;
7074;SDS011;3578;51.568;6.932;2023-01-04T11:17:27;2.70;;;1.30;;
7074;SDS011;3578;51.568;6.932;2023-01-04T11:19:57;2.10;;;1.30;;
7074;SDS011;3578;51.568;6.932;2023-01-04T11:22:24;2.30;;;1.93;;
7074;SDS011;3578;51.568;6.932;2023-01-04T11:24:59;3.97;;;2.10;;
7074;SDS011;3578;51.568;6.932;2023-01-04T11:27:28;2.93;;;1.57;;
7074;SDS011;3578;51.568;6.932;2023-01-04T11:30:10;5.37;;;1.80;;
7074;SDS011;3578;51.568;6.932;2023-01-04T11:32:43;2.80;;;1.70;;
7074;SDS011;3578;51.568;6.932;2023-01-04T11:35:35;1.67;;;1.53;;
7074;SDS011;3578;51.568;6.932;2023-01-04T11:38:09;2.40;;;1.90;;
7074;SDS011;3578;51.568;6.932;2023-01-04T11:40:40;2.63;;;1.87;;
7074;SDS011;3578;51.568;6.932;2023-01-04T11:43:19;4.40;;;2.17;;
7074;SDS011;3578;51.568;6.932;2023-01-04T11:45:54;2.33;;;1.87;;
7074;SDS011;3578;51.568;6.932;2023-01-04T11:48:36;4.80;;;2.03;;
7074;SDS011;3578;51.568;6.932;2023-01-04T11:51:16;2.20;;;1.63;;
7074;SDS011;3578;51.568;6.932;2023-01-04T11:53:49;4.23;;;2.43;;
7074;SDS011;3578;51.568;6.932;2023-01-04T11:56:24;5.30;;;1.80;;
7074;SDS011;3578;51.568;6.932;2023-01-04T11:59:10;1.97;;;1.87;;
7074;SDS011;3578;51.568;6.932;2023-01-04T12:01:40;2.97;;;2.40;;
7074;SDS011;3578;51.568;6.932;2023-01-04T12:04:10;4.93;;;2.40;;
7074;SDS011;3578;51.568;6.932;2023-01-04T12:06:44;4.17;;;2.10;;
7074;SDS011;3578;51.568;6.932;2023-01-04T12:09:17;3.53;;;1.70;;
7074;SDS011;3578;51.568;6.932;2023-01-04T12:11:46;3.33;;;2.17;;
7074;SDS011;3578;51.568;6.932;2023-01-04T12:14:17;2.80;;;2.07;;
7074;SDS011;3578;51.568;6.932;2023-01-04T12:16:51;2.80;;;2.20;;
7074;SDS011;3578;51.568;6.932;2023-01-04T12:19:24;2.17;;;2.00;;
7074;SDS011;3578;51.568;6.932;2023-01-04T12:21:54;2.43;;;2.20;;
7074;SDS011;3578;51.568;6.932;2023-01-04T12:24:25;8.53;;;2.70;;
7074;SDS011;3578;51.568;6.932;2023-01-04T12:26:54;2.97;;;2.13;;
7074;SDS011;3578;51.568;6.932;2023-01-04T12:44:55;2.47;;;2.07;;
7074;SDS011;3578;51.568;6.932;2023-01-04T12:47:39;2.13;;;2.03;;
7074;SDS011;3578;51.568;6.932;2023-01-04T12:50:26;3.43;;;2.20;;
7074;SDS011;3578;51.568;6.932;2023-01-04T12:52:55;2.13;;;2.03;;
7074;SDS011;3578;51.568;6.932;2023-01-04T12:58:39;1.53;;;1.53;;
7074;SDS011;3578;51.568;6.932;2023-01-04T13:01:29;2.03;;;1.93;;
7074;SDS011;3578;51.568;6.932;2023-01-04T13:03:57;2.90;;;2.10;;
7074;SDS011;3578;51.568;6.932;2023-01-04T13:06:27;4.33;;;2.00;;
7074;SDS011;3578;51.568;6.932;2023-01-04T13:08:57;1.80;;;1.70;;
7074;SDS011;3578;51.568;6.932;2023-01-04T13:11:32;1.80;;;1.70;;
7074;SDS011;3578;51.568;6.932;2023-01-04T13:14:24;3.00;;;2.10;;
7074;SDS011;3578;51.568;6.932;2023-01-04T13:17:07;2.17;;;2.07;;
7074;SDS011;3578;51.568;6.932;2023-01-04T13:19:46;3.40;;;3.20;;
7074;SDS011;3578;51.568;6.932;2023-01-04T13:22:21;3.77;;;3.57;;
7074;SDS011;3578;51.568;6.932;2023-01-04T13:24:52;5.53;;;5.10;;
7074;SDS011;3578;51.568;6.932;2023-01-04T13:27:22;4.50;;;4.10;;
7074;SDS011;3578;51.568;6.932;2023-01-04T13:29:51;3.57;;;3.30;;
7074;SDS011;3578;51.568;6.932;2023-01-04T13:32:23;2.80;;;2.63;;
7074;SDS011;3578;51.568;6.932;2023-01-04T13:34:53;2.40;;;2.30;;
7074;SDS011;3578;51.568;6.932;2023-01-04T13:37:30;2.50;;;2.40;;
7074;SDS011;3578;51.568;6.932;2023-01-04T13:40:11;3.37;;;2.53;;
7074;SDS011;3578;51.568;6.932;2023-01-04T13:42:55;2.53;;;2.33;;
7074;SDS011;3578;51.568;6.932;2023-01-04T13:45:36;2.60;;;2.40;;
7074;SDS011;3578;51.568;6.932;2023-01-04T13:48:34;3.13;;;2.90;;
7074;SDS011;3578;51.568;6.932;2023-01-04T13:51:03;3.50;;;3.20;;
7074;SDS011;3578;51.568;6.932;2023-01-04T13:53:39;4.40;;;3.80;;
7074;SDS011;3578;51.568;6.932;2023-01-04T13:56:13;5.10;;;4.70;;
7074;SDS011;3578;51.568;6.932;2023-01-04T13:58:45;6.90;;;6.20;;
7074;SDS011;3578;51.568;6.932;2023-01-04T14:01:12;6.80;;;6.10;;
7074;SDS011;3578;51.568;6.932;2023-01-04T14:03:45;5.67;;;5.17;;
7074;SDS011;3578;51.568;6.932;2023-01-04T14:06:16;5.80;;;5.40;;
7074;SDS011;3578;51.568;6.932;2023-01-04T14:08:52;6.17;;;5.77;;
7074;SDS011;3578;51.568;6.932;2023-01-04T14:11:30;8.33;;;7.67;;
7074;SDS011;3578;51.568;6.932;2023-01-04T14:14:28;9.97;;;9.07;;
7074;SDS011;3578;51.568;6.932;2023-01-04T14:17:17;11.70;;;10.90;;
7074;SDS011;3578;51.568;6.932;2023-01-04T14:19:55;9.07;;;8.27;;
7074;SDS011;3578;51.568;6.932;2023-01-04T14:22:24;10.70;;;9.70;;
7074;SDS011;3578;51.568;6.932;2023-01-04T14:28:23;5.20;;;4.90;;
7074;SDS011;3578;51.568;6.932;2023-01-04T14:31:13;5.60;;;5.07;;
7074;SDS011;3578;51.568;6.932;2023-01-04T14:33:47;5.47;;;5.07;;
7074;SDS011;3578;51.568;6.932;2023-01-04T14:36:19;4.80;;;4.50;;
7074;SDS011;3578;51.568;6.932;2023-01-04T14:38:57;5.80;;;5.30;;
7074;SDS011;3578;51.568;6.932;2023-01-04T14:41:37;5.83;;;5.27;;
7074;SDS011;3578;51.568;6.932;2023-01-04T14:44:10;6.50;;;6.00;;
7074;SDS011;3578;51.568;6.932;2023-01-04T14:46:39;13.30;;;8.23;;
7074;SDS011;3578;51.568;6.932;2023-01-04T14:49:10;9.70;;;8.77;;
7074;SDS011;3578;51.568;6.932;2023-01-04T14:51:40;14.10;;;9.43;;
7074;SDS011;3578;51.568;6.932;2023-01-04T14:54:11;11.00;;;8.60;;
7074;SDS011;3578;51.568;6.932;2023-01-04T14:56:39;10.90;;;8.03;;
7074;SDS011;3578;51.568;6.932;2023-01-04T14:59:06;11.10;;;8.17;;
7074;SDS011;3578;51.568;6.932;2023-01-04T15:01:34;10.13;;;7.07;;
7074;SDS011;3578;51.568;6.932;2023-01-04T15:04:02;7.90;;;6.70;;
7074;SDS011;3578;51.568;6.932;2023-01-04T15:06:29;11.53;;;7.50;;
7074;SDS011;3578;51.568;6.932;2023-01-04T15:08:58;7.47;;;4.27;;
7074;SDS011;3578;51.568;6.932;2023-01-04T15:11:25;6.23;;;3.50;;
7074;SDS011;3578;51.568;6.932;2023-01-04T15:13:53;6.43;;;2.93;;
7074;SDS011;3578;51.568;6.932;2023-01-04T15:16:20;3.70;;;2.67;;
7074;SDS011;3578;51.568;6.932;2023-01-04T15:18:47;3.43;;;2.37;;
7074;SDS011;3578;51.568;6.932;2023-01-04T15:21:14;4.47;;;2.80;;
7074;SDS011;3578;51.568;6.932;2023-01-04T15:23:41;5.73;;;2.30;;
7074;SDS011;3578;51.568;6.932;2023-01-04T15:26:10;5.57;;;2.60;;
7074;SDS011;3578;51.568;6.932;2023-01-04T15:28:37;5.00;;;4.47;;
7074;SDS011;3578;51.568;6.932;2023-01-04T15:31:05;3.43;;;3.10;;
7074;SDS011;3578;51.568;6.932;2023-01-04T15:33:34;3.10;;;2.90;;
7074;SDS011;3578;51.568;6.932;2023-01-04T15:36:02;3.17;;;2.83;;
7074;SDS011;3578;51.568;6.932;2023-01-04T15:38:32;3.03;;;2.83;;
7074;SDS011;3578;51.568;6.932;2023-01-04T15:41:01;5.90;;;4.57;;
7074;SDS011;3578;51.568;6.932;2023-01-04T15:43:33;4.30;;;3.87;;
7074;SDS011;3578;51.568;6.932;2023-01-04T15:46:03;6.77;;;3.87;;
7074;SDS011;3578;51.568;6.932;2023-01-04T15:48:32;6.23;;;4.73;;
7074;SDS011;3578;51.568;6.932;2023-01-04T15:51:03;6.13;;;4.43;;
7074;SDS011;3578;51.568;6.932;2023-01-04T15:53:32;8.47;;;4.00;;
7074;SDS011;3578;51.568;6.932;2023-01-04T15:56:05;8.40;;;4.13;;
7074;SDS011;3578;51.568;6.932;2023-01-04T15:58:36;7.87;;;4.30;;
7074;SDS011;3578;51.568;6.932;2023-01-04T16:01:08;5.03;;;3.50;;
7074;SDS011;3578;51.568;6.932;2023-01-04T16:03:36;5.40;;;3.90;;
7074;SDS011;3578;51.568;6.932;2023-01-04T16:06:04;9.40;;;4.17;;
7074;SDS011;3578;51.568;6.932;2023-01-04T16:08:32;7.90;;;4.30;;
7074;SDS011;3578;51.568;6.932;2023-01-04T16:11:06;8.60;;;5.10;;
7074;SDS011;3578;51.568;6.932;2023-01-04T16:13:34;9.67;;;4.93;;
7074;SDS011;3578;51.568;6.932;2023-01-04T16:16:03;13.23;;;5.17;;